Mercur 205 — YP2630 — position and weather

sailwx.info

Track history (hours):
 
Tides and Currents Weather Stations Pressure Air Temp Water Temp Dewpoint Dewpoint Depression Visibility Wind Speed Wind Dir Waves Ship Positions

Mercur 205

Last reported at 2017-Nov-17 07:31 UTC. Time now 2017-Nov-22 13:09 UTC.
Position N 48°11' E 016°28'.

Length 34 m; draft 2 m.

Type: Ship. MMSI: 264162630.

Date/timePositionNaut miles runAvg speedWind from/ knotsBaromVisibWave heightAir tempDewpointWater temp
2017-Nov-17 07:31N 48°11' E 016°28'1 6.0
2017-Nov-17 07:25N 48°11' E 016°28'11 2.1
2017-Nov-17 02:13N 48°08' E 016°44'2 2.1
2017-Nov-17 01:14N 48°07' E 016°47'1 2.3
2017-Nov-17 00:45N 48°07' E 016°49'1 2.3
2017-Nov-17 00:25N 48°07' E 016°50'1 2.4
2017-Nov-16 23:58N 48°08' E 016°51'1 2.3
2017-Nov-16 23:30N 48°08' E 016°53'1 2.3
2017-Nov-16 23:00N 48°09' E 016°54'1 2.4
2017-Nov-16 22:30N 48°09' E 016°56'1 2.2
2017-Nov-16 22:00N 48°10' E 016°57'1 2.2
2017-Nov-16 21:30N 48°10' E 016°58'1 2.4
2017-Nov-16 21:00N 48°10' E 016°60'1 2.6
2017-Nov-16 20:30N 48°09' E 017°01'1 2.3
2017-Nov-16 20:00N 48°08' E 017°03'1 2.7
2017-Nov-16 19:30N 48°08' E 017°05'2 3.2
2017-Nov-16 19:00N 48°08' E 017°07'2 3.1
2017-Nov-16 18:30N 48°07' E 017°09'2 3.7
2017-Nov-16 18:01N 48°05' E 017°09'0 0.2
2017-Nov-16 17:30N 48°05' E 017°09'0 0.7
2017-Nov-16 17:00N 48°05' E 017°09'2 4.2
2017-Nov-16 16:30N 48°03' E 017°11'2 4.5
2017-Nov-16 16:00N 48°02' E 017°14'2 4.7
2017-Nov-16 15:30N 48°01' E 017°17'3 5.2
2017-Nov-16 15:01N 47°60' E 017°21'3 5.1
2017-Nov-16 14:30N 47°59' E 017°24'3 5.0
2017-Nov-16 14:00N 47°57' E 017°26'3 5.1
2017-Nov-16 13:30N 47°55' E 017°29'3 5.5
2017-Nov-16 13:00N 47°53' E 017°32'0 0.5
2017-Nov-16 12:27N 47°53' E 017°32'0 0.7
2017-Nov-16 12:00N 47°53' E 017°33'1 1.8
2017-Nov-16 11:30N 47°52' E 017°33'2 4.9
2017-Nov-16 11:00N 47°50' E 017°36'3 4.6
2017-Nov-16 10:24N 47°48' E 017°38'2 4.0
2017-Nov-16 09:59N 47°47' E 017°40'4 2.8
2017-Nov-16 08:38N 47°45' E 017°45'1 3.2
2017-Nov-16 08:14N 47°44' E 017°47'2 3.6
2017-Nov-16 07:43N 47°44' E 017°50'1 3.8
2017-Nov-16 07:29N 47°45' E 017°51'2 3.7
2017-Nov-16 07:00N 47°44' E 017°54'7 4.0
2017-Nov-16 05:10N 47°45' E 018°05'42 2.0
2017-Nov-15 07:54N 47°37' E 019°06'2 5.5
2017-Nov-15 07:30N 47°36' E 019°05'2 5.0
2017-Nov-15 07:00N 47°33' E 019°04'2 4.7
2017-Nov-15 06:30N 47°31' E 019°03'2 4.4
2017-Nov-15 06:00N 47°29' E 019°04'2 4.0
2017-Nov-15 05:30N 47°27' E 019°03'2 4.0
2017-Nov-15 05:00N 47°25' E 019°03'2 4.1
2017-Nov-15 04:30N 47°23' E 019°01'3 4.8
2017-Nov-15 03:52N 47°22' E 018°57'2 4.5
2017-Nov-15 03:29N 47°20' E 018°57'3 0.1
2017-Nov-13 02:00N 47°23' E 018°58'0 0.0
2017-Nov-13 01:30N 47°23' E 018°58'0 0.0
2017-Nov-13 01:00N 47°23' E 018°58'0 0.0
2017-Nov-13 00:30N 47°23' E 018°58'0 0.0
2017-Nov-13 00:00N 47°23' E 018°58'0 0.0
2017-Nov-12 23:29N 47°23' E 018°58'0 0.0
2017-Nov-12 22:58N 47°23' E 018°58'0 0.0
2017-Nov-12 22:29N 47°23' E 018°58'0 0.0
2017-Nov-12 22:00N 47°23' E 018°58'0 0.0
2017-Nov-12 21:30N 47°23' E 018°58'1 2.1
2017-Nov-12 20:59N 47°23' E 018°60'3 6.0
2017-Nov-12 20:31N 47°25' E 019°03'4 7.0
2017-Nov-12 20:00N 47°29' E 019°04'3 6.5
2017-Nov-12 19:31N 47°32' E 019°03'3 5.8
2017-Nov-12 18:59N 47°34' E 019°04'0 0.1
2017-Nov-12 18:31N 47°35' E 019°04'0 0.0
2017-Nov-12 18:00N 47°35' E 019°04'2 2.8
2017-Nov-12 17:26N 47°36' E 019°05'48 5.0
2017-Nov-12 07:48N 47°45' E 017°55'2 6.7
2017-Nov-12 07:28N 47°45' E 017°52'4 8.0
2017-Nov-12 07:01N 47°44' E 017°46'4 8.1
2017-Nov-12 06:31N 47°46' E 017°41'5 9.2
2017-Nov-12 06:01N 47°50' E 017°36'3 5.2
2017-Nov-12 05:30N 47°52' E 017°34'0 0.0
2017-Nov-12 05:01N 47°52' E 017°34'0 0.0
2017-Nov-12 04:30N 47°52' E 017°34'0 0.0
2017-Nov-12 03:59N 47°52' E 017°34'0 0.0
2017-Nov-12 03:31N 47°52' E 017°34'0 0.0
2017-Nov-12 03:01N 47°52' E 017°34'0 0.0
2017-Nov-12 02:30N 47°52' E 017°34'0 0.0
2017-Nov-12 02:00N 47°52' E 017°34'0 0.0
2017-Nov-12 01:31N 47°52' E 017°34'0 0.0
2017-Nov-12 01:00N 47°52' E 017°34'0 0.0
2017-Nov-12 00:30N 47°52' E 017°34'0 0.0
2017-Nov-12 00:01N 47°52' E 017°34'0 0.0
2017-Nov-11 23:31N 47°52' E 017°34'0 0.0
2017-Nov-11 23:00N 47°52' E 017°34'0 0.0
2017-Nov-11 22:31N 47°52' E 017°34'0 0.0
2017-Nov-11 22:00N 47°52' E 017°34'0 0.0
2017-Nov-11 21:30N 47°52' E 017°34'0 0.0
2017-Nov-11 21:01N 47°52' E 017°34'0 0.0
2017-Nov-11 20:31N 47°52' E 017°34'0 0.0
2017-Nov-11 20:01N 47°52' E 017°34'0 0.0
2017-Nov-11 19:31N 47°52' E 017°34'0 0.0
2017-Nov-11 19:01N 47°52' E 017°34'0 0.0
2017-Nov-11 18:31N 47°52' E 017°34'0 0.0
2017-Nov-11 18:01N 47°52' E 017°34'0 0.0
2017-Nov-11 17:30N 47°52' E 017°34'0 0.0
2017-Nov-11 17:00N 47°52' E 017°34'0 0.0
2017-Nov-11 16:31N 47°52' E 017°34'0 0.0
2017-Nov-11 16:01N 47°52' E 017°34'0 0.0
2017-Nov-11 15:30N 47°52' E 017°34'0 0.0
2017-Nov-11 15:00N 47°52' E 017°34'2 3.2
2017-Nov-11 14:30N 47°53' E 017°32'0 0.8
2017-Nov-11 14:01N 47°53' E 017°32'0 0.0
2017-Nov-11 13:30N 47°53' E 017°32'0 0.0
2017-Nov-11 13:01N 47°53' E 017°32'1 2.0
2017-Nov-11 12:31N 47°54' E 017°31'4 7.4
2017-Nov-11 12:01N 47°57' E 017°27'4 8.5
2017-Nov-11 11:31N 47°59' E 017°22'4 8.1
2017-Nov-11 11:01N 48°01' E 017°17'4 8.7
2017-Nov-11 10:31N 48°03' E 017°11'4 8.1
2017-Nov-11 10:00N 48°07' E 017°08'3 6.8
2017-Nov-11 09:30N 48°09' E 017°04'4 8.8
2017-Nov-11 09:00N 48°10' E 016°58'5 9.5
2017-Nov-11 08:28N 48°08' E 016°52'15 9.3
2017-Nov-11 06:50N 48°10' E 016°29'1 1.6
2017-Nov-11 06:27N 48°11' E 016°29'1 1.2
2017-Nov-11 06:00N 48°11' E 016°28'3 0.2
2017-Nov-10 15:15N 48°13' E 016°25'  
Track history (hours):
 
Tides and Currents Weather Stations Pressure Air Temp Water Temp Dewpoint Dewpoint Depression Visibility Wind Speed Wind Dir Waves Ship Positions

Mercur 205

Last reported at 2017-Nov-17 07:31 UTC. Time now 2017-Nov-22 13:09 UTC.
Position N 48°11' E 016°28'.

Length 34 m; draft 2 m.

Type: Ship. MMSI: 264162630.

Date/timePositionNaut miles runAvg speedWind from/ knotsBaromVisibWave heightAir tempDewpointWater temp
2017-Nov-17 07:31N 48°11' E 016°28'1 6.0
2017-Nov-17 07:25N 48°11' E 016°28'11 2.1
2017-Nov-17 02:13N 48°08' E 016°44'2 2.1
2017-Nov-17 01:14N 48°07' E 016°47'1 2.3
2017-Nov-17 00:45N 48°07' E 016°49'1 2.3
2017-Nov-17 00:25N 48°07' E 016°50'1 2.4
2017-Nov-16 23:58N 48°08' E 016°51'1 2.3
2017-Nov-16 23:30N 48°08' E 016°53'1 2.3
2017-Nov-16 23:00N 48°09' E 016°54'1 2.4
2017-Nov-16 22:30N 48°09' E 016°56'1 2.2
2017-Nov-16 22:00N 48°10' E 016°57'1 2.2
2017-Nov-16 21:30N 48°10' E 016°58'1 2.4
2017-Nov-16 21:00N 48°10' E 016°60'1 2.6
2017-Nov-16 20:30N 48°09' E 017°01'1 2.3
2017-Nov-16 20:00N 48°08' E 017°03'1 2.7
2017-Nov-16 19:30N 48°08' E 017°05'2 3.2
2017-Nov-16 19:00N 48°08' E 017°07'2 3.1
2017-Nov-16 18:30N 48°07' E 017°09'2 3.7
2017-Nov-16 18:01N 48°05' E 017°09'0 0.2
2017-Nov-16 17:30N 48°05' E 017°09'0 0.7
2017-Nov-16 17:00N 48°05' E 017°09'2 4.2
2017-Nov-16 16:30N 48°03' E 017°11'2 4.5
2017-Nov-16 16:00N 48°02' E 017°14'2 4.7
2017-Nov-16 15:30N 48°01' E 017°17'3 5.2
2017-Nov-16 15:01N 47°60' E 017°21'3 5.1
2017-Nov-16 14:30N 47°59' E 017°24'3 5.0
2017-Nov-16 14:00N 47°57' E 017°26'3 5.1
2017-Nov-16 13:30N 47°55' E 017°29'3 5.5
2017-Nov-16 13:00N 47°53' E 017°32'0 0.5
2017-Nov-16 12:27N 47°53' E 017°32'0 0.7
2017-Nov-16 12:00N 47°53' E 017°33'1 1.8
2017-Nov-16 11:30N 47°52' E 017°33'2 4.9
2017-Nov-16 11:00N 47°50' E 017°36'3 4.6
2017-Nov-16 10:24N 47°48' E 017°38'2 4.0
2017-Nov-16 09:59N 47°47' E 017°40'4 2.8
2017-Nov-16 08:38N 47°45' E 017°45'1 3.2
2017-Nov-16 08:14N 47°44' E 017°47'2 3.6
2017-Nov-16 07:43N 47°44' E 017°50'1 3.8
2017-Nov-16 07:29N 47°45' E 017°51'2 3.7
2017-Nov-16 07:00N 47°44' E 017°54'7 4.0
2017-Nov-16 05:10N 47°45' E 018°05'42 2.0
2017-Nov-15 07:54N 47°37' E 019°06'2 5.5
2017-Nov-15 07:30N 47°36' E 019°05'2 5.0
2017-Nov-15 07:00N 47°33' E 019°04'2 4.7
2017-Nov-15 06:30N 47°31' E 019°03'2 4.4
2017-Nov-15 06:00N 47°29' E 019°04'2 4.0
2017-Nov-15 05:30N 47°27' E 019°03'2 4.0
2017-Nov-15 05:00N 47°25' E 019°03'2 4.1
2017-Nov-15 04:30N 47°23' E 019°01'3 4.8
2017-Nov-15 03:52N 47°22' E 018°57'2 4.5
2017-Nov-15 03:29N 47°20' E 018°57'3 0.1
2017-Nov-13 02:00N 47°23' E 018°58'0 0.0
2017-Nov-13 01:30N 47°23' E 018°58'0 0.0
2017-Nov-13 01:00N 47°23' E 018°58'0 0.0
2017-Nov-13 00:30N 47°23' E 018°58'0 0.0
2017-Nov-13 00:00N 47°23' E 018°58'0 0.0
2017-Nov-12 23:29N 47°23' E 018°58'0 0.0
2017-Nov-12 22:58N 47°23' E 018°58'0 0.0
2017-Nov-12 22:29N 47°23' E 018°58'0 0.0
2017-Nov-12 22:00N 47°23' E 018°58'0 0.0
2017-Nov-12 21:30N 47°23' E 018°58'1 2.1
2017-Nov-12 20:59N 47°23' E 018°60'3 6.0
2017-Nov-12 20:31N 47°25' E 019°03'4 7.0
2017-Nov-12 20:00N 47°29' E 019°04'3 6.5
2017-Nov-12 19:31N 47°32' E 019°03'3 5.8
2017-Nov-12 18:59N 47°34' E 019°04'0 0.1
2017-Nov-12 18:31N 47°35' E 019°04'0 0.0
2017-Nov-12 18:00N 47°35' E 019°04'2 2.8
2017-Nov-12 17:26N 47°36' E 019°05'48 5.0
2017-Nov-12 07:48N 47°45' E 017°55'2 6.7
2017-Nov-12 07:28N 47°45' E 017°52'4 8.0
2017-Nov-12 07:01N 47°44' E 017°46'4 8.1
2017-Nov-12 06:31N 47°46' E 017°41'5 9.2
2017-Nov-12 06:01N 47°50' E 017°36'3 5.2
2017-Nov-12 05:30N 47°52' E 017°34'0 0.0
2017-Nov-12 05:01N 47°52' E 017°34'0 0.0
2017-Nov-12 04:30N 47°52' E 017°34'0 0.0
2017-Nov-12 03:59N 47°52' E 017°34'0 0.0
2017-Nov-12 03:31N 47°52' E 017°34'0 0.0
2017-Nov-12 03:01N 47°52' E 017°34'0 0.0
2017-Nov-12 02:30N 47°52' E 017°34'0 0.0
2017-Nov-12 02:00N 47°52' E 017°34'0 0.0
2017-Nov-12 01:31N 47°52' E 017°34'0 0.0
2017-Nov-12 01:00N 47°52' E 017°34'0 0.0
2017-Nov-12 00:30N 47°52' E 017°34'0 0.0
2017-Nov-12 00:01N 47°52' E 017°34'0 0.0
2017-Nov-11 23:31N 47°52' E 017°34'0 0.0
2017-Nov-11 23:00N 47°52' E 017°34'0 0.0
2017-Nov-11 22:31N 47°52' E 017°34'0 0.0
2017-Nov-11 22:00N 47°52' E 017°34'0 0.0
2017-Nov-11 21:30N 47°52' E 017°34'0 0.0
2017-Nov-11 21:01N 47°52' E 017°34'0 0.0
2017-Nov-11 20:31N 47°52' E 017°34'0 0.0
2017-Nov-11 20:01N 47°52' E 017°34'0 0.0
2017-Nov-11 19:31N 47°52' E 017°34'0 0.0
2017-Nov-11 19:01N 47°52' E 017°34'0 0.0
2017-Nov-11 18:31N 47°52' E 017°34'0 0.0
2017-Nov-11 18:01N 47°52' E 017°34'0 0.0
2017-Nov-11 17:30N 47°52' E 017°34'0 0.0
2017-Nov-11 17:00N 47°52' E 017°34'0 0.0
2017-Nov-11 16:31N 47°52' E 017°34'0 0.0
2017-Nov-11 16:01N 47°52' E 017°34'0 0.0
2017-Nov-11 15:30N 47°52' E 017°34'0 0.0
2017-Nov-11 15:00N 47°52' E 017°34'2 3.2
2017-Nov-11 14:30N 47°53' E 017°32'0 0.8
2017-Nov-11 14:01N 47°53' E 017°32'0 0.0
2017-Nov-11 13:30N 47°53' E 017°32'0 0.0
2017-Nov-11 13:01N 47°53' E 017°32'1 2.0
2017-Nov-11 12:31N 47°54' E 017°31'4 7.4
2017-Nov-11 12:01N 47°57' E 017°27'4 8.5
2017-Nov-11 11:31N 47°59' E 017°22'4 8.1
2017-Nov-11 11:01N 48°01' E 017°17'4 8.7
2017-Nov-11 10:31N 48°03' E 017°11'4 8.1
2017-Nov-11 10:00N 48°07' E 017°08'3 6.8
2017-Nov-11 09:30N 48°09' E 017°04'4 8.8
2017-Nov-11 09:00N 48°10' E 016°58'5 9.5
2017-Nov-11 08:28N 48°08' E 016°52'15 9.3
2017-Nov-11 06:50N 48°10' E 016°29'1 1.6
2017-Nov-11 06:27N 48°11' E 016°29'1 1.2
2017-Nov-11 06:00N 48°11' E 016°28'3 0.2
2017-Nov-10 15:15N 48°13' E 016°25'  

Dump ship's entire track history